createdAt,value
2022-09-17T00:00:07.299Z,0
2022-09-17T00:03:07.681Z,0
2022-09-17T00:06:07.342Z,0
2022-09-17T00:09:07.379Z,0
2022-09-17T00:12:07.383Z,0
2022-09-17T00:15:07.321Z,0
2022-09-17T00:18:07.350Z,0
2022-09-17T00:21:07.333Z,0
2022-09-17T00:24:07.389Z,0
2022-09-17T00:27:07.390Z,0
2022-09-17T00:30:07.442Z,0
2022-09-17T00:33:07.244Z,0
2022-09-17T00:36:07.334Z,0
2022-09-17T00:39:07.316Z,0
2022-09-17T00:42:07.384Z,0
2022-09-17T00:45:07.304Z,0
2022-09-17T00:48:07.346Z,0
2022-09-17T00:51:07.373Z,0
2022-09-17T00:54:07.335Z,0
2022-09-17T00:57:07.523Z,0
2022-09-17T01:00:07.394Z,0
2022-09-17T01:03:07.343Z,0
2022-09-17T01:06:07.316Z,0
2022-09-17T01:09:07.332Z,0
2022-09-17T01:12:07.462Z,0
2022-09-17T01:15:07.323Z,0
2022-09-17T01:18:07.316Z,0
2022-09-17T01:21:07.284Z,0
2022-09-17T01:24:07.541Z,0
2022-09-17T01:27:07.317Z,0
2022-09-17T01:30:07.391Z,0
2022-09-17T01:33:07.324Z,0
2022-09-17T01:36:07.426Z,0
2022-09-17T01:39:07.331Z,0
2022-09-17T01:42:07.657Z,0
2022-09-17T01:45:07.321Z,0
2022-09-17T01:48:07.323Z,0
2022-09-17T01:51:07.277Z,0
2022-09-17T01:54:07.493Z,0
2022-09-17T01:57:07.538Z,0
2022-09-17T02:00:07.360Z,0
2022-09-17T02:03:07.479Z,0
2022-09-17T02:06:07.286Z,0
2022-09-17T02:09:07.371Z,0
2022-09-17T02:12:07.509Z,0
2022-09-17T02:15:07.368Z,0
2022-09-17T02:18:07.320Z,0
2022-09-17T02:21:07.287Z,0
2022-09-17T02:24:07.426Z,0
2022-09-17T02:27:07.508Z,0
2022-09-17T02:30:07.340Z,0
2022-09-17T02:33:07.267Z,0
2022-09-17T02:36:07.328Z,0
2022-09-17T02:39:07.438Z,0
2022-09-17T02:42:07.617Z,0
2022-09-17T02:45:07.452Z,0
2022-09-17T02:48:07.326Z,0
2022-09-17T02:51:07.400Z,0
2022-09-17T02:54:07.348Z,0
2022-09-17T02:57:07.477Z,0
2022-09-17T03:00:07.357Z,0
2022-09-17T03:03:07.286Z,0
2022-09-17T03:06:07.365Z,0
2022-09-17T03:09:07.343Z,0
2022-09-17T03:12:07.339Z,0
2022-09-17T03:15:07.344Z,0
2022-09-17T03:18:07.406Z,0
2022-09-17T03:21:07.304Z,0
2022-09-17T03:24:07.308Z,0
2022-09-17T03:27:07.308Z,0
2022-09-17T03:30:07.379Z,0
2022-09-17T03:33:07.339Z,0
2022-09-17T03:36:07.350Z,0
2022-09-17T03:39:07.434Z,0
2022-09-17T03:42:07.326Z,0
2022-09-17T03:45:07.316Z,0
2022-09-17T03:48:07.312Z,0
2022-09-17T03:51:07.309Z,0
2022-09-17T03:54:07.454Z,0
2022-09-17T03:57:07.291Z,0
2022-09-17T04:00:07.383Z,0
2022-09-17T04:03:07.443Z,0
2022-09-17T04:06:07.447Z,0
2022-09-17T04:09:07.399Z,0
2022-09-17T04:12:07.339Z,0
2022-09-17T04:15:07.374Z,0
2022-09-17T04:18:07.327Z,0
2022-09-17T04:21:07.403Z,0
2022-09-17T04:24:07.380Z,3
2022-09-17T04:27:07.476Z,3
2022-09-17T04:30:07.421Z,7
2022-09-17T04:33:07.335Z,13
2022-09-17T04:36:07.341Z,20
2022-09-17T04:39:07.389Z,30
2022-09-17T04:42:07.503Z,50
2022-09-17T04:45:07.317Z,73
2022-09-17T04:48:07.293Z,107
2022-09-17T04:51:07.336Z,133
2022-09-17T04:54:07.383Z,197
2022-09-17T04:57:07.352Z,280
2022-09-17T05:00:07.416Z,363
2022-09-17T05:03:07.327Z,433
2022-09-17T05:06:07.500Z,603
2022-09-17T05:09:07.524Z,693
2022-09-17T05:12:07.411Z,827
2022-09-17T05:15:07.334Z,1100
2022-09-17T05:18:07.378Z,1210
2022-09-17T05:21:07.339Z,1217
2022-09-17T05:24:07.325Z,1447
2022-09-17T05:27:07.406Z,1747
2022-09-17T05:30:07.536Z,2493
2022-09-17T05:33:07.332Z,2007
2022-09-17T05:36:07.364Z,2080
2022-09-17T05:39:07.371Z,1913
2022-09-17T05:42:07.349Z,2300
2022-09-17T05:45:07.392Z,1993
2022-09-17T05:48:07.362Z,1650
2022-09-17T05:51:07.359Z,1657
2022-09-17T05:54:07.405Z,1700
2022-09-17T05:57:07.329Z,2513
2022-09-17T06:00:07.519Z,3157
2022-09-17T06:03:07.707Z,3697
2022-09-17T06:06:07.350Z,4173
2022-09-17T06:09:07.397Z,4793
2022-09-17T06:12:07.377Z,5500
2022-09-17T06:15:07.326Z,7040
2022-09-17T06:18:07.318Z,8733
2022-09-17T06:21:07.384Z,7213
2022-09-17T06:24:07.302Z,5570
2022-09-17T06:27:07.355Z,3157
2022-09-17T06:30:07.374Z,5507
2022-09-17T06:33:07.392Z,8210
2022-09-17T06:36:13.854Z,7400
2022-09-17T06:39:07.345Z,7017
2022-09-17T06:42:07.319Z,7453
2022-09-17T06:45:20.953Z,7667
2022-09-17T06:48:07.307Z,8420
2022-09-17T06:51:07.308Z,8857
2022-09-17T06:54:07.340Z,9370
2022-09-17T06:57:07.352Z,10360
2022-09-17T07:00:07.421Z,11190
2022-09-17T07:03:07.353Z,10820
2022-09-17T07:06:07.392Z,10203
2022-09-17T07:09:12.561Z,10330
2022-09-17T07:12:07.348Z,13530
2022-09-17T07:15:07.398Z,11373
2022-09-17T07:18:07.382Z,12597
2022-09-17T07:21:07.327Z,12667
2022-09-17T07:24:07.281Z,10970
2022-09-17T07:27:07.336Z,20557
2022-09-17T07:30:07.448Z,23787
2022-09-17T07:33:07.296Z,18023
2022-09-17T07:36:07.412Z,13120
2022-09-17T07:39:07.354Z,8367
2022-09-17T07:42:07.355Z,11283
2022-09-17T07:45:09.185Z,11297
2022-09-17T07:48:07.313Z,24267
2022-09-17T07:51:07.386Z,28763
2022-09-17T07:54:07.328Z,32293
2022-09-17T07:57:07.359Z,33150
2022-09-17T08:00:07.503Z,31883
2022-09-17T08:03:07.892Z,37457
2022-09-17T08:06:07.449Z,40063
2022-09-17T08:09:07.392Z,28390
2022-09-17T08:12:07.406Z,48657
2022-09-17T08:15:07.519Z,40353
2022-09-17T08:18:07.389Z,49140
2022-09-17T08:21:07.358Z,18403
2022-09-17T08:24:07.431Z,44437
2022-09-17T08:27:07.354Z,48027
2022-09-17T08:30:07.604Z,15970
2022-09-17T08:33:07.531Z,26247
2022-09-17T08:36:07.923Z,21423
2022-09-17T08:39:07.899Z,19953
2022-09-17T08:42:07.437Z,19900
2022-09-17T08:45:07.891Z,19890
2022-09-17T08:48:07.381Z,8420
2022-09-17T08:51:15.138Z,18783
2022-09-17T08:54:07.362Z,58167
2022-09-17T08:57:07.318Z,22717
2022-09-17T09:00:07.492Z,52397
2022-09-17T09:03:07.678Z,51053
2022-09-17T09:06:13.168Z,49960
2022-09-17T09:09:07.396Z,12970
2022-09-17T09:12:07.311Z,55870
2022-09-17T09:15:07.371Z,55857
2022-09-17T09:18:07.438Z,55443
2022-09-17T09:21:07.331Z,57150
2022-09-17T09:24:07.744Z,9287
2022-09-17T09:27:07.326Z,56127
2022-09-17T09:30:07.477Z,59667
2022-09-17T09:33:07.333Z,57943
2022-09-17T09:36:07.350Z,25557
2022-09-17T09:39:07.351Z,15263
2022-09-17T09:42:07.346Z,20083
2022-09-17T09:45:12.289Z,13000
2022-09-17T09:48:07.406Z,16880
2022-09-17T09:51:13.834Z,13650
2022-09-17T09:54:07.411Z,61020
2022-09-17T09:57:07.380Z,66153
2022-09-17T10:00:07.531Z,38150
2022-09-17T10:03:07.616Z,12563
2022-09-17T10:06:07.451Z,22177
2022-09-17T10:09:07.351Z,15077
2022-09-17T10:12:07.425Z,14930
2022-09-17T10:15:07.387Z,14740
2022-09-17T10:18:07.408Z,21307
2022-09-17T10:21:07.355Z,67050
2022-09-17T10:24:07.452Z,66363
2022-09-17T10:27:07.325Z,15070
2022-09-17T10:30:07.610Z,64847
2022-09-17T10:33:07.332Z,25347
2022-09-17T10:36:07.329Z,66563
2022-09-17T10:39:07.303Z,11843
2022-09-17T10:42:07.396Z,68627
2022-09-17T10:45:07.327Z,15480
2022-09-17T10:48:07.308Z,13557
2022-09-17T10:51:07.392Z,69033
2022-09-17T10:54:07.320Z,64910
2022-09-17T10:57:07.357Z,72097
2022-09-17T11:00:07.437Z,15320
2022-09-17T11:03:07.566Z,63823
2022-09-17T11:06:10.913Z,65870
2022-09-17T11:09:07.369Z,15910
2022-09-17T11:12:07.356Z,18027
2022-09-17T11:15:07.445Z,14180
2022-09-17T11:18:07.381Z,53970
2022-09-17T11:21:07.382Z,40303
2022-09-17T11:24:07.458Z,63563
2022-09-17T11:27:07.358Z,66640
2022-09-17T11:30:07.458Z,64310
2022-09-17T11:33:07.394Z,28937
2022-09-17T11:36:07.363Z,62657
2022-09-17T11:39:07.387Z,63333
2022-09-17T11:42:07.349Z,63557
2022-09-17T11:45:07.371Z,62667
2022-09-17T11:48:07.353Z,60917
2022-09-17T11:51:07.354Z,11553
2022-09-17T11:54:07.342Z,63003
2022-09-17T11:57:12.190Z,65550
2022-09-17T12:00:07.391Z,75980
2022-09-17T12:03:07.752Z,55983
2022-09-17T12:06:07.381Z,46827
2022-09-17T12:09:07.392Z,20630
2022-09-17T12:12:07.317Z,22157
2022-09-17T12:15:07.318Z,32653
2022-09-17T12:18:39.192Z,13877
2022-09-17T12:21:07.364Z,15313
2022-09-17T12:24:07.374Z,16190
2022-09-17T12:27:07.336Z,20367
2022-09-17T12:30:07.730Z,29330
2022-09-17T12:33:07.330Z,24453
2022-09-17T12:36:12.465Z,10613
2022-09-17T12:39:10.203Z,8663
2022-09-17T12:42:07.341Z,18283
2022-09-17T12:45:07.282Z,21487
2022-09-17T12:48:07.352Z,28090
2022-09-17T12:51:07.275Z,38203
2022-09-17T12:54:07.384Z,34477
2022-09-17T12:57:08.127Z,25843
2022-09-17T13:00:14.996Z,22813
2022-09-17T13:03:07.338Z,14680
2022-09-17T13:06:07.410Z,10200
2022-09-17T13:09:07.350Z,8230
2022-09-17T13:12:07.347Z,12363
2022-09-17T13:15:07.310Z,12687
2022-09-17T13:18:33.598Z,10340
2022-09-17T13:21:07.329Z,7457
2022-09-17T13:24:07.519Z,7490
2022-09-17T13:27:07.394Z,10007
2022-09-17T13:30:07.382Z,12303
2022-09-17T13:33:07.626Z,9953
2022-09-17T13:36:07.399Z,7650
2022-09-17T13:39:07.445Z,7527
2022-09-17T13:42:07.320Z,8107
2022-09-17T13:45:13.356Z,7227
2022-09-17T13:48:07.349Z,6497
2022-09-17T13:51:07.295Z,7853
2022-09-17T13:54:07.509Z,8333
2022-09-17T13:57:07.338Z,7287
2022-09-17T14:00:07.395Z,6940
2022-09-17T14:03:07.596Z,5397
2022-09-17T14:06:07.400Z,5157
2022-09-17T14:09:07.327Z,5807
2022-09-17T14:12:07.355Z,7290
2022-09-17T14:15:07.376Z,8817
2022-09-17T14:18:07.417Z,10337
2022-09-17T14:21:07.294Z,10773
2022-09-17T14:24:07.276Z,5833
2022-09-17T14:27:07.341Z,4017
2022-09-17T14:30:07.543Z,4020
2022-09-17T14:33:07.339Z,4363
2022-09-17T14:36:07.423Z,4057
2022-09-17T14:39:07.340Z,3507
2022-09-17T14:42:07.380Z,3240
2022-09-17T14:45:07.503Z,2103
2022-09-17T14:48:07.421Z,3227
2022-09-17T14:51:07.310Z,3370
2022-09-17T14:54:07.337Z,4940
2022-09-17T14:57:07.333Z,5047
2022-09-17T15:00:13.114Z,5167
2022-09-17T15:03:07.873Z,5930
2022-09-17T15:06:07.311Z,5930
2022-09-17T15:09:07.352Z,7697
2022-09-17T15:12:07.381Z,6400
2022-09-17T15:15:07.338Z,7760
2022-09-17T15:18:07.348Z,7073
2022-09-17T15:21:07.447Z,4617
2022-09-17T15:24:07.340Z,6177
2022-09-17T15:27:07.340Z,4977
2022-09-17T15:30:07.637Z,2953
2022-09-17T15:33:07.335Z,2363
2022-09-17T15:36:07.345Z,3987
2022-09-17T15:39:07.310Z,3957
2022-09-17T15:42:07.335Z,3737
2022-09-17T15:45:07.420Z,2517
2022-09-17T15:48:13.103Z,2467
2022-09-17T15:51:07.353Z,1807
2022-09-17T15:54:09.360Z,1117
2022-09-17T15:57:07.345Z,1100
2022-09-17T16:00:07.435Z,893
2022-09-17T16:03:07.681Z,1433
2022-09-17T16:06:11.551Z,1380
2022-09-17T16:09:07.352Z,917
2022-09-17T16:12:07.328Z,677
2022-09-17T16:15:07.417Z,847
2022-09-17T16:18:07.326Z,900
2022-09-17T16:21:07.314Z,987
2022-09-17T16:24:07.439Z,573
2022-09-17T16:27:07.415Z,583
2022-09-17T16:30:07.330Z,427
2022-09-17T16:33:07.340Z,637
2022-09-17T16:36:07.356Z,427
2022-09-17T16:39:07.377Z,420
2022-09-17T16:42:07.334Z,930
2022-09-17T16:45:07.329Z,827
2022-09-17T16:48:07.358Z,430
2022-09-17T16:51:07.393Z,407
2022-09-17T16:54:07.348Z,250
2022-09-17T16:57:07.378Z,407
2022-09-17T17:00:07.687Z,263
2022-09-17T17:03:07.684Z,493
2022-09-17T17:06:07.378Z,637
2022-09-17T17:09:07.433Z,677
2022-09-17T17:12:07.309Z,567
2022-09-17T17:15:07.397Z,393
2022-09-17T17:18:07.431Z,273
2022-09-17T17:21:07.293Z,217
2022-09-17T17:24:07.338Z,183
2022-09-17T17:27:07.341Z,150
2022-09-17T17:30:07.371Z,127
2022-09-17T17:33:07.462Z,90
2022-09-17T17:36:15.028Z,63
2022-09-17T17:39:07.294Z,47
2022-09-17T17:42:07.322Z,27
2022-09-17T17:45:07.376Z,13
2022-09-17T17:48:07.247Z,7
2022-09-17T17:51:07.513Z,3
2022-09-17T17:54:07.327Z,3
2022-09-17T17:57:07.349Z,0
2022-09-17T18:00:07.383Z,0
2022-09-17T18:03:07.962Z,0
2022-09-17T18:06:07.668Z,0
2022-09-17T18:09:07.346Z,0
2022-09-17T18:12:07.301Z,0
2022-09-17T18:15:07.346Z,0
2022-09-17T18:18:08.777Z,0
2022-09-17T18:21:07.526Z,0
2022-09-17T18:24:07.314Z,0
2022-09-17T18:27:07.327Z,0
2022-09-17T18:30:07.365Z,0
2022-09-17T18:33:07.322Z,0
2022-09-17T18:36:07.497Z,0
2022-09-17T18:42:07.335Z,0
2022-09-17T18:45:07.463Z,0
2022-09-17T18:48:07.285Z,0
2022-09-17T18:51:07.715Z,0
2022-09-17T18:54:07.337Z,0
2022-09-17T18:57:07.362Z,0
2022-09-17T19:00:07.378Z,0
2022-09-17T19:03:07.330Z,0
2022-09-17T19:06:07.420Z,0
2022-09-17T19:09:07.408Z,0
2022-09-17T19:12:07.363Z,0
2022-09-17T19:15:07.360Z,0
2022-09-17T19:18:07.299Z,0
2022-09-17T19:21:07.359Z,0
2022-09-17T19:24:07.406Z,0
2022-09-17T19:27:07.339Z,0
2022-09-17T19:30:07.392Z,0
2022-09-17T19:33:07.311Z,0
2022-09-17T19:36:07.341Z,0
2022-09-17T19:39:07.478Z,0
2022-09-17T19:42:08.839Z,0
2022-09-17T19:45:07.395Z,0
2022-09-17T19:48:07.348Z,0
2022-09-17T19:51:07.370Z,0
2022-09-17T19:54:07.364Z,0
2022-09-17T19:57:07.300Z,0
2022-09-17T20:00:07.443Z,0
2022-09-17T20:03:07.690Z,0
2022-09-17T20:06:07.407Z,0
2022-09-17T20:09:07.341Z,0
2022-09-17T20:12:07.347Z,0
2022-09-17T20:15:07.358Z,0
2022-09-17T20:18:07.398Z,0
2022-09-17T20:21:07.503Z,0
2022-09-17T20:24:07.298Z,0
2022-09-17T20:27:07.318Z,0
2022-09-17T20:30:07.366Z,0
2022-09-17T20:33:07.376Z,0
2022-09-17T20:36:07.522Z,0
2022-09-17T20:39:30.759Z,0
2022-09-17T20:42:07.319Z,0
2022-09-17T20:45:07.474Z,0
2022-09-17T20:48:07.329Z,0
2022-09-17T20:51:07.611Z,0
2022-09-17T20:54:07.565Z,0
2022-09-17T20:57:07.268Z,0
2022-09-17T21:00:07.397Z,0
2022-09-17T21:03:07.309Z,0
2022-09-17T21:06:07.528Z,0
2022-09-17T21:09:07.673Z,0
2022-09-17T21:12:07.373Z,0
2022-09-17T21:15:07.349Z,0
2022-09-17T21:18:07.354Z,0
2022-09-17T21:21:07.487Z,0
2022-09-17T21:24:07.553Z,0
2022-09-17T21:27:07.302Z,0
2022-09-17T21:30:07.311Z,0
2022-09-17T21:33:07.354Z,0
2022-09-17T21:36:07.653Z,0
2022-09-17T21:39:07.597Z,0
2022-09-17T21:42:07.370Z,0
2022-09-17T21:45:07.338Z,0
2022-09-17T21:48:07.349Z,0
2022-09-17T21:51:07.562Z,0
2022-09-17T21:54:07.704Z,0
2022-09-17T21:57:07.449Z,0
2022-09-17T22:00:07.523Z,0
2022-09-17T22:03:07.711Z,0
2022-09-17T22:06:07.437Z,0
2022-09-17T22:09:07.564Z,0
2022-09-17T22:12:07.420Z,0
2022-09-17T22:15:07.279Z,0
2022-09-17T22:18:15.236Z,0
2022-09-17T22:21:07.378Z,0
2022-09-17T22:24:07.580Z,0
2022-09-17T22:27:07.375Z,0
2022-09-17T22:30:07.315Z,0
2022-09-17T22:33:07.287Z,0
2022-09-17T22:36:07.337Z,0
2022-09-17T22:39:07.489Z,0
2022-09-17T22:42:07.328Z,0
2022-09-17T22:45:07.272Z,0
2022-09-17T22:48:07.302Z,0
2022-09-17T22:51:07.401Z,0
2022-09-17T22:54:07.664Z,0
2022-09-17T22:57:07.294Z,0
2022-09-17T23:00:07.383Z,0
2022-09-17T23:03:07.642Z,0
2022-09-17T23:06:07.373Z,0
2022-09-17T23:09:07.654Z,0
2022-09-17T23:12:07.404Z,0
2022-09-17T23:15:07.343Z,0
2022-09-17T23:18:07.393Z,0
2022-09-17T23:21:07.316Z,0
2022-09-17T23:24:07.604Z,0
2022-09-17T23:27:07.356Z,0
2022-09-17T23:30:07.350Z,0
2022-09-17T23:33:07.325Z,0
2022-09-17T23:36:07.640Z,0
2022-09-17T23:39:07.534Z,0
2022-09-17T23:42:07.352Z,0
2022-09-17T23:45:07.328Z,0
2022-09-17T23:48:07.335Z,0
2022-09-17T23:51:07.596Z,0
2022-09-17T23:54:07.749Z,0
2022-09-17T23:57:07.367Z,0
